Time;durP1;ratioP1;P1;durP2;ratioP2;P2;SDS_P1;SDS_P2;PMS_P1;PMS_P2;Temp;Humidity;BMP_temperature;BMP_pressure;BME280_temperature;BME280_humidity;BME280_pressure;Samples;Min_cycle;Max_cycle;Signal;HPM_P1;HPM_P2
2023/08/27 00:01:51;;;;;;;13.88;12.25;;;;;;;;;;5059521;28;20550;-59
2023/08/27 00:04:17;;;;;;;18.98;13.23;;;;;;;;;;5059846;28;20107;-59
2023/08/27 00:06:43;;;;;;;29.05;12.32;;;;;;;;;;5059874;28;20104;-59
2023/08/27 00:09:10;;;;;;;13.05;11.75;;;;;;;;;;5059876;28;20017;-59
2023/08/27 00:11:36;;;;;;;11.88;10.77;;;;;;;;;;5059842;28;20025;-59
2023/08/27 00:14:03;;;;;;;16.10;10.60;;;;;;;;;;5060573;28;20047;-59
2023/08/27 00:16:29;;;;;;;10.80;9.75;;;;;;;;;;5059797;28;20033;-59
2023/08/27 00:18:55;;;;;;;11.45;10.23;;;;;;;;;;5060183;28;20479;-59
2023/08/27 00:21:21;;;;;;;11.70;10.43;;;;;;;;;;5059399;28;20082;-59
2023/08/27 00:23:47;;;;;;;11.60;10.48;;;;;;;;;;5060764;28;20108;-59
2023/08/27 00:26:13;;;;;;;12.27;10.98;;;;;;;;;;5060054;28;20513;-59
2023/08/27 00:28:39;;;;;;;12.48;11.27;;;;;;;;;;5059695;28;20063;-59
2023/08/27 00:31:05;;;;;;;13.18;11.98;;;;;;;;;;5059743;28;20478;-59
2023/08/27 00:33:31;;;;;;;11.93;10.82;;;;;;;;;;5059682;28;20032;-59
2023/08/27 00:35:57;;;;;;;13.20;11.80;;;;;;;;;;5059475;28;20048;-59
2023/08/27 00:38:23;;;;;;;12.77;11.30;;;;;;;;;;5059633;28;20025;-59
2023/08/27 00:40:49;;;;;;;13.27;11.95;;;;;;;;;;5059929;28;20025;-59
2023/08/27 00:43:15;;;;;;;12.45;11.27;;;;;;;;;;5059611;28;20039;-59
2023/08/27 00:45:41;;;;;;;12.32;11.15;;;;;;;;;;5059604;28;20021;-59
2023/08/27 00:48:08;;;;;;;13.00;11.70;;;;;;;;;;5059528;28;20047;-59
2023/08/27 00:50:34;;;;;;;13.82;12.52;;;;;;;;;;5060393;28;20082;-59
2023/08/27 00:53:00;;;;;;;11.63;10.52;;;;;;;;;;5059477;28;20032;-59
2023/08/27 00:55:26;;;;;;;13.13;11.68;;;;;;;;;;5057325;28;20027;-59
2023/08/27 00:57:52;;;;;;;12.60;11.40;;;;;;;;;;5056236;28;20538;-59
2023/08/27 01:00:20;;;;;;;12.80;11.50;;;;;;;;;;5057081;28;20027;-59
2023/08/27 01:02:47;;;;;;;13.00;11.80;;;;;;;;;;5056236;28;20036;-59
2023/08/27 01:05:14;;;;;;;12.45;11.25;;;;;;;;;;5056937;28;20052;-59
2023/08/27 01:07:57;;;;;;;13.57;12.38;;;;;;;;;;5056660;28;20025;-59
2023/08/27 01:10:42;;;;;;;11.70;10.45;;;;;;;;;;5056146;28;20082;-59
2023/08/27 01:13:10;;;;;;;11.23;10.13;;;;;;;;;;5056338;28;20107;-59
2023/08/27 01:15:36;;;;;;;11.07;10.02;;;;;;;;;;5055998;28;20377;-59
2023/08/27 01:18:03;;;;;;;11.60;9.85;;;;;;;;;;5055908;28;20098;-59
2023/08/27 01:20:32;;;;;;;10.13;9.20;;;;;;;;;;5056162;28;20021;-59
2023/08/27 01:22:58;;;;;;;11.85;10.65;;;;;;;;;;5055833;28;20033;-59
2023/08/27 01:25:25;;;;;;;10.82;9.82;;;;;;;;;;5055811;28;20021;-59
2023/08/27 01:28:04;;;;;;;10.02;8.98;;;;;;;;;;5056253;28;20108;-59
2023/08/27 01:30:34;;;;;;;10.68;9.68;;;;;;;;;;5056012;28;20021;-59
2023/08/27 01:33:09;;;;;;;9.15;8.27;;;;;;;;;;5055676;28;20025;-59
2023/08/27 01:35:35;;;;;;;10.05;9.07;;;;;;;;;;5055967;28;20465;-59
2023/08/27 01:38:01;;;;;;;9.98;8.98;;;;;;;;;;5056144;28;20025;-59
2023/08/27 01:40:27;;;;;;;10.93;9.82;;;;;;;;;;5055863;28;20060;-59
2023/08/27 01:42:53;;;;;;;10.23;9.13;;;;;;;;;;5055474;28;20049;-59
2023/08/27 01:45:19;;;;;;;9.30;8.40;;;;;;;;;;5055479;28;20498;-59
2023/08/27 01:47:45;;;;;;;10.45;8.48;;;;;;;;;;5055405;28;20059;-59
2023/08/27 01:50:11;;;;;;;10.00;8.52;;;;;;;;;;5055877;28;20112;-59
2023/08/27 01:52:37;;;;;;;10.73;9.63;;;;;;;;;;5055783;28;20021;-59
2023/08/27 01:55:04;;;;;;;11.70;9.27;;;;;;;;;;5055533;28;20021;-59
2023/08/27 01:57:30;;;;;;;10.10;9.10;;;;;;;;;;5055713;28;20111;-59
2023/08/27 01:59:56;;;;;;;10.43;9.43;;;;;;;;;;5055477;28;20463;-59
2023/08/27 02:02:22;;;;;;;9.43;8.52;;;;;;;;;;5055014;28;20032;-59
2023/08/27 02:04:49;;;;;;;10.73;9.82;;;;;;;;;;5055006;28;20025;-59
2023/08/27 02:07:15;;;;;;;11.00;9.88;;;;;;;;;;5053903;28;20024;-59
2023/08/27 02:09:41;;;;;;;11.13;9.95;;;;;;;;;;5055494;28;20106;-59
2023/08/27 02:12:07;;;;;;;11.70;9.38;;;;;;;;;;5054855;28;20025;-59
2023/08/27 02:14:33;;;;;;;11.25;10.25;;;;;;;;;;5054612;28;20029;-59
2023/08/27 02:16:59;;;;;;;12.05;10.85;;;;;;;;;;5054792;28;20075;-59
2023/08/27 02:19:25;;;;;;;13.00;11.18;;;;;;;;;;5054792;28;20024;-59
2023/08/27 02:21:51;;;;;;;11.15;10.05;;;;;;;;;;5054850;28;20040;-59
2023/08/27 02:24:17;;;;;;;11.80;10.70;;;;;;;;;;5054393;28;20116;-59
2023/08/27 02:26:43;;;;;;;10.68;9.68;;;;;;;;;;5054461;28;20425;-59
2023/08/27 02:29:09;;;;;;;10.23;9.23;;;;;;;;;;5054667;28;20055;-59
2023/08/27 02:31:35;;;;;;;9.68;8.73;;;;;;;;;;5054238;28;20033;-59
2023/08/27 02:34:02;;;;;;;10.10;9.02;;;;;;;;;;5054163;28;20028;-59
2023/08/27 02:36:28;;;;;;;10.20;9.15;;;;;;;;;;5054358;28;20410;-59
2023/08/27 02:38:54;;;;;;;11.55;10.35;;;;;;;;;;5054999;28;20020;-59
2023/08/27 02:41:20;;;;;;;11.20;10.18;;;;;;;;;;5054189;28;20063;-59
2023/08/27 02:43:46;;;;;;;11.27;10.18;;;;;;;;;;5054026;28;20059;-59
2023/08/27 02:46:12;;;;;;;12.20;9.57;;;;;;;;;;5053966;28;20025;-59
2023/08/27 02:48:38;;;;;;;9.45;8.55;;;;;;;;;;5054221;28;20024;-59
2023/08/27 02:51:04;;;;;;;10.15;9.18;;;;;;;;;;5054752;28;20402;-59
2023/08/27 02:53:30;;;;;;;9.82;8.82;;;;;;;;;;5054041;28;20032;-59
2023/08/27 02:55:56;;;;;;;10.80;9.75;;;;;;;;;;5054602;28;20025;-59
2023/08/27 02:58:22;;;;;;;12.65;10.13;;;;;;;;;;5054368;28;20021;-59
2023/08/27 03:00:48;;;;;;;10.82;9.73;;;;;;;;;;5054305;28;20021;-59
2023/08/27 03:03:14;;;;;;;10.70;9.55;;;;;;;;;;5053960;28;20025;-59
2023/08/27 03:05:40;;;;;;;10.60;9.60;;;;;;;;;;5053956;28;20025;-59
2023/08/27 03:08:06;;;;;;;11.68;10.50;;;;;;;;;;5053867;28;20021;-59
2023/08/27 03:10:32;;;;;;;11.80;10.57;;;;;;;;;;5054251;28;20104;-59
2023/08/27 03:12:58;;;;;;;12.25;10.95;;;;;;;;;;5054313;28;20028;-59
2023/08/27 03:15:24;;;;;;;11.88;10.70;;;;;;;;;;5054388;28;20516;-59
2023/08/27 03:17:50;;;;;;;13.95;12.18;;;;;;;;;;5053423;28;20021;-59
2023/08/27 03:20:16;;;;;;;12.68;11.23;;;;;;;;;;5054555;28;20028;-59
2023/08/27 03:22:42;;;;;;;11.32;10.18;;;;;;;;;;5053666;28;20085;-59
2023/08/27 03:25:08;;;;;;;10.60;9.50;;;;;;;;;;5053637;28;20025;-59
2023/08/27 03:27:35;;;;;;;10.40;9.43;;;;;;;;;;5053605;28;20032;-59
2023/08/27 03:30:01;;;;;;;9.85;8.88;;;;;;;;;;5053827;28;20032;-59
2023/08/27 03:32:27;;;;;;;9.52;8.63;;;;;;;;;;5053852;28;20029;-59
2023/08/27 03:34:52;;;;;;;12.43;9.18;;;;;;;;;;5053525;28;20029;-59
2023/08/27 03:37:18;;;;;;;9.85;8.27;;;;;;;;;;5054025;28;20099;-59
2023/08/27 03:39:44;;;;;;;9.32;8.43;;;;;;;;;;5054590;28;20478;-59
2023/08/27 03:42:10;;;;;;;8.52;7.72;;;;;;;;;;5053340;28;20433;-59
2023/08/27 03:44:36;;;;;;;10.35;7.50;;;;;;;;;;5053936;28;20112;-59
2023/08/27 03:47:03;;;;;;;10.55;7.50;;;;;;;;;;5053391;28;20537;-59
2023/08/27 03:49:29;;;;;;;7.65;6.95;;;;;;;;;;5053349;28;20031;-59
2023/08/27 03:51:55;;;;;;;7.70;6.88;;;;;;;;;;5053103;28;20024;-59
2023/08/27 03:54:21;;;;;;;7.28;6.47;;;;;;;;;;5053338;28;20494;-59
2023/08/27 03:56:47;;;;;;;7.50;6.85;;;;;;;;;;5054018;28;20082;-59
2023/08/27 03:59:13;;;;;;;7.68;6.95;;;;;;;;;;5053884;28;20025;-59
2023/08/27 04:01:39;;;;;;;7.63;6.95;;;;;;;;;;5053759;28;20363;-59
2023/08/27 04:04:05;;;;;;;6.97;5.95;;;;;;;;;;5053738;28;20067;-59
2023/08/27 04:06:31;;;;;;;6.75;5.85;;;;;;;;;;5053255;28;20021;-59
2023/08/27 04:08:57;;;;;;;7.30;6.32;;;;;;;;;;5053759;28;20040;-59
2023/08/27 04:11:23;;;;;;;6.32;5.72;;;;;;;;;;5053197;28;20340;-59
2023/08/27 04:13:50;;;;;;;6.20;5.55;;;;;;;;;;5053175;28;20033;-59
2023/08/27 04:16:16;;;;;;;7.28;6.53;;;;;;;;;;5053169;28;20057;-59
2023/08/27 04:18:42;;;;;;;6.68;5.85;;;;;;;;;;5053655;28;20054;-59
2023/08/27 04:21:08;;;;;;;5.68;4.95;;;;;;;;;;5052681;28;20021;-59
2023/08/27 04:23:34;;;;;;;7.05;5.72;;;;;;;;;;5053350;28;20025;-59
2023/08/27 04:26:00;;;;;;;5.78;5.28;;;;;;;;;;5053866;28;20037;-59
2023/08/27 04:28:26;;;;;;;9.52;5.90;;;;;;;;;;5053000;28;20131;-59
2023/08/27 04:30:52;;;;;;;6.80;6.20;;;;;;;;;;5055807;28;20056;-59
2023/08/27 04:33:18;;;;;;;7.18;5.65;;;;;;;;;;5056504;28;20044;-59
2023/08/27 04:35:48;;;;;;;5.43;4.90;;;;;;;;;;5056656;28;20056;-59
2023/08/27 04:38:14;;;;;;;6.00;5.27;;;;;;;;;;5057112;28;20021;-59
2023/08/27 04:40:40;;;;;;;5.75;5.25;;;;;;;;;;5056474;28;20244;-59
2023/08/27 04:43:06;;;;;;;5.90;4.80;;;;;;;;;;5056625;28;20033;-59
2023/08/27 04:45:32;;;;;;;6.05;5.30;;;;;;;;;;5056571;28;20067;-59
2023/08/27 04:47:58;;;;;;;5.80;5.20;;;;;;;;;;5057287;28;20391;-59
2023/08/27 04:50:24;;;;;;;6.10;5.53;;;;;;;;;;5056762;28;20025;-59
2023/08/27 04:52:50;;;;;;;5.68;4.75;;;;;;;;;;5056685;28;20051;-59
2023/08/27 04:55:15;;;;;;;6.82;5.82;;;;;;;;;;5056412;28;20375;-59
2023/08/27 04:57:41;;;;;;;6.90;5.78;;;;;;;;;;5055989;28;20029;-59
2023/08/27 05:00:08;;;;;;;9.88;6.20;;;;;;;;;;5056342;28;20024;-59
2023/08/27 05:02:35;;;;;;;6.47;5.78;;;;;;;;;;5056728;28;20025;-59
2023/08/27 05:05:01;;;;;;;7.45;6.05;;;;;;;;;;5056609;28;20033;-59
2023/08/27 05:07:27;;;;;;;6.00;5.43;;;;;;;;;;5056211;28;20063;-59
2023/08/27 05:09:52;;;;;;;5.25;4.65;;;;;;;;;;5055518;28;20057;-59
2023/08/27 05:12:18;;;;;;;5.78;5.25;;;;;;;;;;5056922;28;20355;-59
2023/08/27 05:14:44;;;;;;;5.57;4.85;;;;;;;;;;5056383;28;20100;-59
2023/08/27 05:17:11;;;;;;;7.20;5.38;;;;;;;;;;5056362;28;20063;-59
2023/08/27 05:19:37;;;;;;;5.97;5.38;;;;;;;;;;5056286;28;20115;-59
2023/08/27 05:22:03;;;;;;;5.90;5.13;;;;;;;;;;5055783;28;20067;-59
2023/08/27 05:24:30;;;;;;;6.05;5.03;;;;;;;;;;5055923;28;20060;-59
2023/08/27 05:26:56;;;;;;;5.10;4.45;;;;;;;;;;5055962;28;20021;-59
2023/08/27 05:29:22;;;;;;;5.63;5.03;;;;;;;;;;5056115;28;20025;-59
2023/08/27 05:31:48;;;;;;;6.10;4.57;;;;;;;;;;5056267;28;20047;-59
2023/08/27 05:34:14;;;;;;;5.90;4.30;;;;;;;;;;5055739;28;20024;-59
2023/08/27 05:36:40;;;;;;;4.30;3.53;;;;;;;;;;5056329;28;20467;-59
2023/08/27 05:39:06;;;;;;;9.45;4.15;;;;;;;;;;5056227;28;20029;-59
2023/08/27 05:41:32;;;;;;;4.25;3.13;;;;;;;;;;5055091;28;20029;-59
2023/08/27 05:43:59;;;;;;;3.80;3.22;;;;;;;;;;5056091;28;20029;-59
2023/08/27 05:46:24;;;;;;;4.97;3.65;;;;;;;;;;5055518;28;20032;-59
2023/08/27 05:48:50;;;;;;;4.03;3.63;;;;;;;;;;5055769;28;20025;-59
2023/08/27 05:51:16;;;;;;;5.53;3.47;;;;;;;;;;5055360;28;20029;-59
2023/08/27 05:53:43;;;;;;;4.80;3.65;;;;;;;;;;5055302;28;20032;-59
2023/08/27 05:56:09;;;;;;;4.65;4.25;;;;;;;;;;5055840;28;20025;-59
2023/08/27 05:58:35;;;;;;;6.70;3.53;;;;;;;;;;5055210;28;20524;-59
2023/08/27 06:01:03;;;;;;;4.15;3.67;;;;;;;;;;5055973;28;20025;-59
2023/08/27 06:03:30;;;;;;;4.00;3.45;;;;;;;;;;5055244;28;20070;-59
2023/08/27 06:05:55;;;;;;;3.55;2.90;;;;;;;;;;5055949;28;20029;-59
2023/08/27 06:08:22;;;;;;;3.30;2.50;;;;;;;;;;5055587;28;20446;-59
2023/08/27 06:10:48;;;;;;;3.38;2.78;;;;;;;;;;5055330;28;20070;-59
2023/08/27 06:13:14;;;;;;;3.55;2.25;;;;;;;;;;5054998;28;20029;-59
2023/08/27 06:15:40;;;;;;;3.25;2.30;;;;;;;;;;5054960;28;20370;-59
2023/08/27 06:18:07;;;;;;;3.65;2.63;;;;;;;;;;5054883;28;20451;-58
2023/08/27 06:20:33;;;;;;;3.08;2.15;;;;;;;;;;5055394;28;20053;-59
2023/08/27 06:22:59;;;;;;;3.33;2.30;;;;;;;;;;5054762;28;20067;-58
2023/08/27 06:25:25;;;;;;;3.28;2.50;;;;;;;;;;5054803;28;20029;-58
2023/08/27 06:27:54;;;;;;;3.70;1.92;;;;;;;;;;5055110;28;20028;-59
2023/08/27 06:30:20;;;;;;;3.20;1.83;;;;;;;;;;5054619;28;20029;-58
2023/08/27 06:32:46;;;;;;;3.22;2.10;;;;;;;;;;5054580;28;20032;-59
2023/08/27 06:35:12;;;;;;;2.78;2.17;;;;;;;;;;5054878;28;20017;-58
2023/08/27 06:37:38;;;;;;;3.47;2.00;;;;;;;;;;5054700;28;20021;-58
2023/08/27 06:40:04;;;;;;;3.03;2.05;;;;;;;;;;5055241;28;20021;-58
2023/08/27 06:42:30;;;;;;;2.63;1.73;;;;;;;;;;5054186;28;20052;-58
2023/08/27 06:44:55;;;;;;;2.40;1.70;;;;;;;;;;5054684;28;20040;-59
2023/08/27 06:47:21;;;;;;;2.17;1.60;;;;;;;;;;5054631;28;20017;-59
2023/08/27 06:49:49;;;;;;;3.90;2.38;;;;;;;;;;5054655;28;20062;-59
2023/08/27 06:52:15;;;;;;;3.45;2.00;;;;;;;;;;5053753;28;20447;-59
2023/08/27 06:54:41;;;;;;;3.00;2.03;;;;;;;;;;5053980;28;20029;-59
2023/08/27 06:57:07;;;;;;;3.95;2.00;;;;;;;;;;5054139;28;20063;-59
2023/08/27 06:59:33;;;;;;;4.90;1.77;;;;;;;;;;5054742;28;20429;-59
2023/08/27 07:01:59;;;;;;;4.10;1.90;;;;;;;;;;5054295;28;20111;-59
2023/08/27 07:04:25;;;;;;;2.35;1.65;;;;;;;;;;5054580;28;20025;-59
2023/08/27 07:06:51;;;;;;;2.92;1.92;;;;;;;;;;5054299;28;20100;-59
2023/08/27 07:09:17;;;;;;;2.35;1.73;;;;;;;;;;5054604;28;20116;-59
2023/08/27 07:11:43;;;;;;;3.97;1.88;;;;;;;;;;5053915;28;20455;-59
2023/08/27 07:14:09;;;;;;;2.65;1.73;;;;;;;;;;5053898;28;20052;-60
2023/08/27 07:16:34;;;;;;;3.40;2.10;;;;;;;;;;5053845;28;20017;-59
2023/08/27 07:19:00;;;;;;;2.95;1.85;;;;;;;;;;5054125;28;20028;-59
2023/08/27 07:21:27;;;;;;;2.55;1.80;;;;;;;;;;5054283;28;20054;-60
2023/08/27 07:23:52;;;;;;;3.40;1.58;;;;;;;;;;5053462;28;20032;-59
2023/08/27 07:26:18;;;;;;;3.80;2.17;;;;;;;;;;5053761;28;20096;-59
2023/08/27 07:28:45;;;;;;;2.72;1.85;;;;;;;;;;5054243;28;20101;-59
2023/08/27 07:31:11;;;;;;;6.60;1.85;;;;;;;;;;5054174;28;20029;-59
2023/08/27 07:33:37;;;;;;;2.33;1.23;;;;;;;;;;5053583;28;20394;-59
2023/08/27 07:36:03;;;;;;;2.75;1.45;;;;;;;;;;5054046;28;20053;-59
2023/08/27 07:38:29;;;;;;;1.92;1.27;;;;;;;;;;5053766;28;20055;-59
2023/08/27 07:40:55;;;;;;;2.13;1.60;;;;;;;;;;5053406;28;20120;-59
2023/08/27 07:43:21;;;;;;;2.03;1.02;;;;;;;;;;5054033;28;20033;-59
2023/08/27 07:45:47;;;;;;;3.17;1.15;;;;;;;;;;5053118;28;20017;-60
2023/08/27 07:48:13;;;;;;;2.15;1.25;;;;;;;;;;5053433;28;20485;-59
2023/08/27 07:50:40;;;;;;;1.75;1.05;;;;;;;;;;5053772;28;20028;-59
2023/08/27 07:53:06;;;;;;;7.32;1.15;;;;;;;;;;5052700;28;20062;-59
2023/08/27 07:55:34;;;;;;;2.33;1.45;;;;;;;;;;5053426;28;20112;-59
2023/08/27 07:58:00;;;;;;;1.95;1.33;;;;;;;;;;5053564;28;20112;-60
2023/08/27 08:00:26;;;;;;;1.73;1.05;;;;;;;;;;5053475;28;20025;-59
2023/08/27 08:02:52;;;;;;;3.60;0.90;;;;;;;;;;5053340;28;20059;-59
2023/08/27 08:05:18;;;;;;;1.85;0.95;;;;;;;;;;5056490;28;20044;-59
2023/08/27 08:07:44;;;;;;;1.45;0.85;;;;;;;;;;5057587;28;20459;-59
2023/08/27 08:10:10;;;;;;;3.42;1.38;;;;;;;;;;5057921;28;20047;-59
2023/08/27 08:12:36;;;;;;;1.55;0.95;;;;;;;;;;5057007;28;20036;-59
2023/08/27 08:15:02;;;;;;;1.63;0.98;;;;;;;;;;5057228;28;20052;-59
2023/08/27 08:17:29;;;;;;;2.35;1.20;;;;;;;;;;5057432;28;20021;-59
2023/08/27 08:19:55;;;;;;;1.73;1.20;;;;;;;;;;5057445;28;20025;-59
2023/08/27 08:22:21;;;;;;;1.77;1.13;;;;;;;;;;5056625;28;20021;-59
2023/08/27 08:24:47;;;;;;;1.98;1.13;;;;;;;;;;5057049;28;20124;-59
2023/08/27 08:27:13;;;;;;;2.78;1.10;;;;;;;;;;5057904;28;20040;-59
2023/08/27 08:29:39;;;;;;;2.03;1.38;;;;;;;;;;5057268;28;20025;-59
2023/08/27 08:32:05;;;;;;;2.67;1.10;;;;;;;;;;5057017;28;20032;-59
2023/08/27 08:34:31;;;;;;;3.00;1.45;;;;;;;;;;5057732;28;20118;-59
2023/08/27 08:36:57;;;;;;;1.85;1.10;;;;;;;;;;5057483;28;20124;-59
2023/08/27 08:39:27;;;;;;;1.58;0.90;;;;;;;;;;5056769;28;20052;-59
2023/08/27 08:42:02;;;;;;;2.33;1.00;;;;;;;;;;5056852;28;20463;-59
2023/08/27 08:44:39;;;;;;;1.45;0.77;;;;;;;;;;5057572;28;20041;-59
2023/08/27 08:47:07;;;;;;;1.30;0.68;;;;;;;;;;5056671;28;20113;-59
2023/08/27 08:49:34;;;;;;;1.10;0.73;;;;;;;;;;5056661;28;20477;-59
2023/08/27 08:52:01;;;;;;;1.80;0.80;;;;;;;;;;5057100;28;20029;-59
2023/08/27 08:54:28;;;;;;;2.08;0.90;;;;;;;;;;5056809;28;20064;-59
2023/08/27 08:56:57;;;;;;;3.83;0.85;;;;;;;;;;5056454;28;20067;-59
2023/08/27 08:59:27;;;;;;;1.70;0.85;;;;;;;;;;5056564;28;20017;-59
2023/08/27 09:01:53;;;;;;;2.30;1.10;;;;;;;;;;5056296;28;20021;-59
2023/08/27 09:04:20;;;;;;;2.22;1.13;;;;;;;;;;5056632;28;20036;-59
2023/08/27 09:06:46;;;;;;;1.83;0.98;;;;;;;;;;5056219;28;20052;-59
2023/08/27 09:09:13;;;;;;;3.65;1.25;;;;;;;;;;5057227;28;20017;-59
2023/08/27 09:11:39;;;;;;;1.98;1.10;;;;;;;;;;5056417;28;20028;-59
2023/08/27 09:14:05;;;;;;;2.15;0.75;;;;;;;;;;5055635;28;20021;-59
2023/08/27 09:16:31;;;;;;;1.77;1.05;;;;;;;;;;5055567;28;20056;-59
2023/08/27 09:18:57;;;;;;;3.45;1.23;;;;;;;;;;5056626;28;20017;-58
2023/08/27 09:21:23;;;;;;;1.75;1.13;;;;;;;;;;5056391;28;20067;-59
2023/08/27 09:23:49;;;;;;;3.08;1.33;;;;;;;;;;5055808;28;20108;-58
2023/08/27 09:26:16;;;;;;;2.38;1.20;;;;;;;;;;5055920;28;20017;-59
2023/08/27 09:28:42;;;;;;;2.22;0.90;;;;;;;;;;5055889;28;20021;-59
2023/08/27 09:31:11;;;;;;;1.50;0.82;;;;;;;;;;5055855;28;20360;-59
2023/08/27 09:33:41;;;;;;;1.80;0.90;;;;;;;;;;5056282;28;20405;-59
2023/08/27 09:36:07;;;;;;;1.77;0.98;;;;;;;;;;5055972;28;20041;-59
2023/08/27 09:38:39;;;;;;;1.33;0.90;;;;;;;;;;5056184;28;20067;-59
2023/08/27 09:41:17;;;;;;;1.73;1.00;;;;;;;;;;5056053;28;20032;-59
2023/08/27 09:43:53;;;;;;;2.10;0.93;;;;;;;;;;5055601;28;20025;-59
2023/08/27 09:46:19;;;;;;;1.83;0.95;;;;;;;;;;5055487;28;20032;-60
2023/08/27 09:48:56;;;;;;;2.58;1.05;;;;;;;;;;5055982;28;20520;-60
2023/08/27 09:51:22;;;;;;;1.77;0.70;;;;;;;;;;5056299;28;20033;-58
2023/08/27 09:53:48;;;;;;;1.73;0.95;;;;;;;;;;5055937;28;20350;-58
2023/08/27 09:56:16;;;;;;;1.90;0.98;;;;;;;;;;5055413;28;20021;-58
2023/08/27 09:58:42;;;;;;;2.10;1.17;;;;;;;;;;5055523;28;20025;-58
2023/08/27 10:01:08;;;;;;;1.80;0.85;;;;;;;;;;5054879;28;20083;-58
2023/08/27 10:03:34;;;;;;;1.70;0.85;;;;;;;;;;5055241;28;20541;-58
2023/08/27 10:06:04;;;;;;;2.10;1.00;;;;;;;;;;5055246;28;20068;-59
2023/08/27 10:08:29;;;;;;;1.15;0.47;;;;;;;;;;5055595;28;20116;-59
2023/08/27 10:11:06;;;;;;;1.95;0.93;;;;;;;;;;5055153;28;20101;-58
2023/08/27 10:13:32;;;;;;;2.15;0.80;;;;;;;;;;5055654;28;20029;-59
2023/08/27 10:15:58;;;;;;;1.63;1.05;;;;;;;;;;5055016;28;20075;-59
2023/08/27 10:18:24;;;;;;;1.40;0.68;;;;;;;;;;5055413;28;20021;-59
2023/08/27 10:20:51;;;;;;;2.33;1.08;;;;;;;;;;5054529;28;20021;-59
2023/08/27 10:23:20;;;;;;;1.45;0.85;;;;;;;;;;5054829;28;20474;-60
2023/08/27 10:25:47;;;;;;;1.95;0.80;;;;;;;;;;5055477;28;20159;-59
2023/08/27 10:28:13;;;;;;;2.25;0.88;;;;;;;;;;5053657;28;20025;-59
2023/08/27 10:30:39;;;;;;;1.90;1.00;;;;;;;;;;5055152;28;20358;-59
2023/08/27 10:33:05;;;;;;;1.88;1.08;;;;;;;;;;5054943;28;20108;-59
2023/08/27 10:35:34;;;;;;;1.85;0.90;;;;;;;;;;5053203;28;20080;-59
2023/08/27 10:38:00;;;;;;;1.27;0.68;;;;;;;;;;5055013;28;20028;-59
2023/08/27 10:40:27;;;;;;;4.97;1.00;;;;;;;;;;5054610;28;20028;-60
2023/08/27 10:43:06;;;;;;;2.22;1.00;;;;;;;;;;5054428;28;20024;-60
2023/08/27 10:45:36;;;;;;;1.73;0.95;;;;;;;;;;5054794;28;20028;-60
2023/08/27 10:48:11;;;;;;;2.00;0.80;;;;;;;;;;5054510;28;20108;-59
2023/08/27 10:50:51;;;;;;;2.03;0.90;;;;;;;;;;5054207;28;20033;-60
2023/08/27 10:53:17;;;;;;;2.90;0.93;;;;;;;;;;5054993;28;20033;-60
2023/08/27 10:55:53;;;;;;;2.35;0.82;;;;;;;;;;5054214;28;20040;-60
2023/08/27 10:58:21;;;;;;;1.23;0.60;;;;;;;;;;5054991;28;20017;-60
2023/08/27 11:01:05;;;;;;;1.77;1.05;;;;;;;;;;5054023;28;20075;-60
2023/08/27 11:03:50;;;;;;;1.58;0.75;;;;;;;;;;5054086;28;20033;-60
2023/08/27 11:06:16;;;;;;;1.80;1.00;;;;;;;;;;5054038;28;20039;-60
2023/08/27 11:08:42;;;;;;;2.40;1.20;;;;;;;;;;5054015;28;20025;-60
2023/08/27 11:11:12;;;;;;;1.20;0.60;;;;;;;;;;5053951;28;20021;-60
2023/08/27 11:13:39;;;;;;;1.33;0.73;;;;;;;;;;5054448;28;20108;-60
2023/08/27 11:16:12;;;;;;;4.75;1.20;;;;;;;;;;5053922;28;20437;-60
2023/08/27 11:18:45;;;;;;;1.88;1.13;;;;;;;;;;5054458;28;20115;-60
2023/08/27 11:21:26;;;;;;;2.58;0.70;;;;;;;;;;5053744;28;20068;-60
2023/08/27 11:24:12;;;;;;;2.20;0.80;;;;;;;;;;5053748;28;20029;-60
2023/08/27 11:26:40;;;;;;;1.25;0.60;;;;;;;;;;5054283;28;20091;-60
2023/08/27 11:29:09;;;;;;;2.80;1.35;;;;;;;;;;5054279;28;20025;-60
2023/08/27 11:31:38;;;;;;;1.13;0.60;;;;;;;;;;5053696;28;20057;-58
2023/08/27 11:34:05;;;;;;;1.77;0.98;;;;;;;;;;5053444;28;20017;-58
2023/08/27 11:36:31;;;;;;;1.67;0.88;;;;;;;;;;5053499;28;20041;-58
2023/08/27 11:39:05;;;;;;;2.13;1.10;;;;;;;;;;5053227;28;20017;-58
2023/08/27 11:41:36;;;;;;;1.65;0.82;;;;;;;;;;5053632;28;20029;-58
2023/08/27 11:44:02;;;;;;;2.17;1.15;;;;;;;;;;5053518;28;20506;-58
2023/08/27 11:46:28;;;;;;;1.92;0.93;;;;;;;;;;5053438;28;20036;-58
2023/08/27 11:48:54;;;;;;;2.75;1.10;;;;;;;;;;5054002;28;20021;-58
2023/08/27 11:51:20;;;;;;;2.60;1.00;;;;;;;;;;5053436;28;20478;-58
2023/08/27 11:53:46;;;;;;;1.88;1.08;;;;;;;;;;5053356;28;20033;-58
2023/08/27 11:56:12;;;;;;;1.52;0.93;;;;;;;;;;5053088;28;20017;-58
2023/08/27 11:58:42;;;;;;;1.80;0.82;;;;;;;;;;5053734;28;20164;-58
2023/08/27 12:01:10;;;;;;;1.67;0.95;;;;;;;;;;5053550;28;20116;-58
2023/08/27 12:03:38;;;;;;;1.73;0.82;;;;;;;;;;5053222;28;20482;-58
2023/08/27 12:06:04;;;;;;;2.50;1.00;;;;;;;;;;5053861;28;20079;-58
2023/08/27 12:08:36;;;;;;;1.33;0.75;;;;;;;;;;5053257;28;20064;-58
2023/08/27 12:11:04;;;;;;;1.20;0.80;;;;;;;;;;5053299;28;20025;-58
2023/08/27 12:13:30;;;;;;;1.80;0.90;;;;;;;;;;5053288;28;20151;-58
2023/08/27 12:15:56;;;;;;;7.10;1.20;;;;;;;;;;5053246;28;20077;-58
2023/08/27 12:18:22;;;;;;;2.65;1.00;;;;;;;;;;5053075;28;20050;-58
2023/08/27 12:20:49;;;;;;;2.40;1.10;;;;;;;;;;5053845;28;20092;-58
2023/08/27 12:23:15;;;;;;;1.98;0.90;;;;;;;;;;5053928;28;20102;-58
2023/08/27 12:25:52;;;;;;;1.60;0.77;;;;;;;;;;5053102;28;20115;-58
2023/08/27 12:28:18;;;;;;;2.72;1.42;;;;;;;;;;5053366;28;20376;-57
2023/08/27 12:30:50;;;;;;;1.75;0.90;;;;;;;;;;5053745;28;20047;-57
2023/08/27 12:33:16;;;;;;;2.58;1.40;;;;;;;;;;5052976;28;20026;-60
2023/08/27 12:35:46;;;;;;;1.65;0.90;;;;;;;;;;5052886;28;20052;-60
2023/08/27 12:38:12;;;;;;;2.65;1.00;;;;;;;;;;5053236;28;20033;-60
2023/08/27 12:40:38;;;;;;;3.00;1.00;;;;;;;;;;5053308;28;20064;-60
2023/08/27 12:43:04;;;;;;;1.80;1.08;;;;;;;;;;5053273;28;20064;-60
2023/08/27 12:45:30;;;;;;;2.08;1.25;;;;;;;;;;5052810;28;20036;-60
2023/08/27 12:47:56;;;;;;;1.23;0.65;;;;;;;;;;5052800;28;20045;-60
2023/08/27 12:50:22;;;;;;;2.78;1.55;;;;;;;;;;5053501;28;20032;-60
2023/08/27 12:52:48;;;;;;;1.75;1.10;;;;;;;;;;5056360;28;20025;-60
2023/08/27 12:55:14;;;;;;;2.10;1.08;;;;;;;;;;5057215;28;20147;-60
2023/08/27 12:57:41;;;;;;;2.53;1.10;;;;;;;;;;5056404;28;20098;-60
2023/08/27 13:00:08;;;;;;;2.20;1.40;;;;;;;;;;5057210;28;20029;-60
2023/08/27 13:02:34;;;;;;;2.03;1.00;;;;;;;;;;5056212;28;20025;-60
2023/08/27 13:05:01;;;;;;;1.77;0.98;;;;;;;;;;5056788;28;20025;-60
2023/08/27 13:07:28;;;;;;;1.92;1.08;;;;;;;;;;5056426;28;20044;-60
2023/08/27 13:09:54;;;;;;;1.52;0.82;;;;;;;;;;5055852;28;20119;-60
2023/08/27 13:12:20;;;;;;;1.90;1.20;;;;;;;;;;5056677;28;20048;-60
2023/08/27 13:14:46;;;;;;;4.07;1.00;;;;;;;;;;5056643;28;20025;-60
2023/08/27 13:17:12;;;;;;;2.60;1.45;;;;;;;;;;5056606;28;20401;-60
2023/08/27 13:19:38;;;;;;;2.08;1.27;;;;;;;;;;5056645;28;20056;-60
2023/08/27 13:22:04;;;;;;;2.50;1.27;;;;;;;;;;5056210;28;20025;-60
2023/08/27 13:24:31;;;;;;;1.55;0.88;;;;;;;;;;5056019;28;20033;-59
2023/08/27 13:26:57;;;;;;;2.28;1.05;;;;;;;;;;5055803;28;20119;-60
2023/08/27 13:29:23;;;;;;;3.60;1.15;;;;;;;;;;5056422;28;20021;-60
2023/08/27 13:31:54;;;;;;;1.90;1.00;;;;;;;;;;5056251;28;20029;-59
2023/08/27 13:34:20;;;;;;;1.90;1.27;;;;;;;;;;5056208;28;20013;-59
2023/08/27 13:36:46;;;;;;;1.98;1.15;;;;;;;;;;5055748;28;20057;-59
2023/08/27 13:39:12;;;;;;;2.17;1.10;;;;;;;;;;5055639;28;20098;-59
2023/08/27 13:41:38;;;;;;;2.00;0.88;;;;;;;;;;5054992;28;20462;-59
2023/08/27 13:44:04;;;;;;;2.15;1.05;;;;;;;;;;5055508;28;20482;-59
2023/08/27 13:46:30;;;;;;;1.63;0.82;;;;;;;;;;5055862;28;20036;-59
2023/08/27 13:48:56;;;;;;;4.00;1.15;;;;;;;;;;5055823;28;20033;-59
2023/08/27 13:51:22;;;;;;;1.83;1.10;;;;;;;;;;5056087;28;20044;-59
2023/08/27 13:53:48;;;;;;;2.13;1.10;;;;;;;;;;5055945;28;20024;-59
2023/08/27 13:56:14;;;;;;;1.27;0.82;;;;;;;;;;5055344;28;20017;-59
2023/08/27 13:58:41;;;;;;;2.33;1.40;;;;;;;;;;5055351;28;20021;-59
2023/08/27 14:01:07;;;;;;;2.00;1.23;;;;;;;;;;5055727;28;20071;-59
2023/08/27 14:03:33;;;;;;;2.00;1.05;;;;;;;;;;5054687;28;20394;-59
2023/08/27 14:05:59;;;;;;;2.72;1.05;;;;;;;;;;5055276;28;20025;-59
2023/08/27 14:08:25;;;;;;;2.45;1.27;;;;;;;;;;5055325;28;20462;-59
2023/08/27 14:10:52;;;;;;;2.10;0.98;;;;;;;;;;5055596;28;20021;-59
2023/08/27 14:13:18;;;;;;;2.28;1.10;;;;;;;;;;5055090;28;20022;-59
2023/08/27 14:15:44;;;;;;;1.75;0.98;;;;;;;;;;5055139;28;20032;-59
2023/08/27 14:18:10;;;;;;;2.67;0.98;;;;;;;;;;5054935;28;20014;-59
2023/08/27 14:20:36;;;;;;;3.97;1.10;;;;;;;;;;5055365;28;20025;-59
2023/08/27 14:23:02;;;;;;;3.47;0.82;;;;;;;;;;5055053;28;20036;-58
2023/08/27 14:25:28;;;;;;;2.13;1.10;;;;;;;;;;5054858;28;20033;-59
2023/08/27 14:27:53;;;;;;;3.38;1.33;;;;;;;;;;5055511;28;20446;-58
2023/08/27 14:30:20;;;;;;;2.15;1.15;;;;;;;;;;5055447;28;20336;-59
2023/08/27 14:32:46;;;;;;;3.50;1.38;;;;;;;;;;5055371;28;20029;-59
2023/08/27 14:35:12;;;;;;;1.70;0.88;;;;;;;;;;5055238;28;20025;-61
2023/08/27 14:37:38;;;;;;;2.50;0.90;;;;;;;;;;5054494;28;20017;-58